Time,TemperatureF,DewpointF,PressureIn,WindDirection,WindDirectionDegrees,WindSpeedMPH,WindSpeedGustMPH,Humidity,HourlyPrecipIn,Conditions,Clouds,dailyrainin,SolarRadiationWatts/m^2,SoftwareType,DateUTC
2013-02-06 00:00:00,72.7,71.4,30.04,SE,127,0.0,0.0,96,0.00,,,0.05,0.0,meteohub,2013-02-06 04:00:00,
2013-02-06 00:05:00,72.7,71.4,30.04,SE,127,0.0,0.0,96,0.00,,,0.00,0.0,meteohub,2013-02-06 04:05:00,
2013-02-06 00:10:00,72.9,72.0,30.04,SE,127,0.0,0.0,97,0.00,,,0.00,0.0,meteohub,2013-02-06 04:10:00,
2013-02-06 00:15:00,73.2,72.3,30.04,SE,127,0.0,0.0,97,0.00,,,0.01,0.0,meteohub,2013-02-06 04:15:00,
2013-02-06 00:20:00,73.0,72.1,30.04,SE,127,0.0,0.0,97,0.04,,,0.04,0.0,meteohub,2013-02-06 04:20:00,
2013-02-06 00:25:00,72.9,72.0,30.04,SE,127,0.0,0.0,97,0.04,,,0.04,0.0,meteohub,2013-02-06 04:25:00,
2013-02-06 00:30:00,72.5,71.6,30.04,SE,127,0.0,0.0,97,0.04,,,0.04,0.0,meteohub,2013-02-06 04:30:00,
2013-02-06 00:35:00,72.3,71.4,30.04,SE,126,0.0,0.0,97,0.04,,,0.04,0.0,meteohub,2013-02-06 04:35:00,
2013-02-06 00:40:00,72.3,71.8,30.04,SE,128,0.0,0.0,98,0.04,,,0.04,0.0,meteohub,2013-02-06 04:40:00,
2013-02-06 00:45:00,72.3,71.8,30.04,SE,127,0.0,0.0,98,0.04,,,0.04,0.0,meteohub,2013-02-06 04:45:00,
2013-02-06 00:50:00,72.1,71.6,30.04,SE,127,0.0,0.0,98,0.04,,,0.04,0.0,meteohub,2013-02-06 04:50:00,
2013-02-06 00:55:00,72.0,71.4,30.04,SE,127,0.0,0.0,98,0.04,,,0.04,0.0,meteohub,2013-02-06 04:55:00,
2013-02-06 01:00:00,71.8,71.2,30.04,SE,127,0.0,0.0,98,0.04,,,0.04,0.0,meteohub,2013-02-06 05:00:00,
2013-02-06 01:01:00,71.8,71.2,30.04,SE,127,0.0,2.0,98,0.04,,,0.04,0.0,meteohub,2013-02-06 05:01:00,
2013-02-06 01:06:00,72.0,71.6,30.04,SE,127,0.0,2.0,99,0.04,,,0.04,0.0,meteohub,2013-02-06 05:06:00,
2013-02-06 01:11:00,71.8,71.4,30.04,SE,126,0.0,2.0,99,0.04,,,0.04,0.0,meteohub,2013-02-06 05:11:00,
2013-02-06 01:16:00,72.0,71.6,30.03,SE,128,0.0,0.0,99,0.02,,,0.04,0.0,meteohub,2013-02-06 05:16:00,
2013-02-06 01:21:00,72.1,71.8,30.03,SE,127,0.0,0.0,99,0.00,,,0.04,0.0,meteohub,2013-02-06 05:21:00,
2013-02-06 01:26:00,72.0,71.6,30.03,ESE,123,0.0,0.0,99,0.00,,,0.04,0.0,meteohub,2013-02-06 05:26:00,
2013-02-06 01:31:00,71.8,71.4,30.02,SE,127,0.0,0.0,99,0.00,,,0.04,0.0,meteohub,2013-02-06 05:31:00,
2013-02-06 01:36:00,71.8,71.4,30.02,SE,126,0.0,0.0,99,0.00,,,0.04,0.0,meteohub,2013-02-06 05:36:00,
2013-02-06 01:41:00,71.6,71.2,30.02,SE,126,1.0,0.0,99,0.00,,,0.04,0.0,meteohub,2013-02-06 05:41:00,
2013-02-06 01:46:00,71.2,70.9,30.02,SE,127,0.0,1.0,99,0.00,,,0.04,0.0,meteohub,2013-02-06 05:46:00,
2013-02-06 01:51:00,71.4,71.1,30.02,SE,130,0.0,1.0,99,0.00,,,0.04,0.0,meteohub,2013-02-06 05:51:00,
2013-02-06 01:56:00,71.4,71.1,30.02,SE,130,0.0,1.0,99,0.00,,,0.04,0.0,meteohub,2013-02-06 05:56:00,
2013-02-06 02:01:00,71.2,70.9,30.01,SE,127,0.0,0.0,99,0.00,,,0.04,0.0,meteohub,2013-02-06 06:01:00,
2013-02-06 02:06:00,71.2,70.9,30.01,SE,128,0.0,0.0,99,0.00,,,0.04,0.0,meteohub,2013-02-06 06:06:00,
2013-02-06 02:11:00,71.4,71.1,30.01,SE,127,0.0,0.0,99,0.00,,,0.04,0.0,meteohub,2013-02-06 06:11:00,
2013-02-06 02:16:00,71.4,71.1,30.01,SE,127,0.0,0.0,99,0.00,,,0.04,0.0,meteohub,2013-02-06 06:16:00,
2013-02-06 02:21:00,71.4,71.1,30.01,SE,127,0.0,0.0,99,0.00,,,0.04,0.0,meteohub,2013-02-06 06:21:00,
2013-02-06 02:26:00,71.2,70.9,30.01,SE,127,0.0,0.0,99,0.00,,,0.04,0.0,meteohub,2013-02-06 06:26:00,
2013-02-06 02:31:00,71.2,70.9,30.01,SE,127,0.0,0.0,99,0.00,,,0.04,0.0,meteohub,2013-02-06 06:31:00,
2013-02-06 02:36:00,71.2,70.9,30.01,SE,127,0.0,0.0,99,0.00,,,0.04,0.0,meteohub,2013-02-06 06:36:00,
2013-02-06 02:41:00,71.2,70.9,30.01,SE,127,0.0,0.0,99,0.00,,,0.04,0.0,meteohub,2013-02-06 06:41:00,
2013-02-06 02:47:00,71.4,71.1,30.00,SE,127,0.0,0.0,99,0.00,,,0.04,0.0,meteohub,2013-02-06 06:47:00,
2013-02-06 02:52:00,71.8,71.4,30.00,SE,127,0.0,0.0,99,0.00,,,0.04,0.0,meteohub,2013-02-06 06:52:00,
2013-02-06 02:57:00,71.8,71.4,30.00,SE,128,0.0,0.0,99,0.00,,,0.04,0.0,meteohub,2013-02-06 06:57:00,
2013-02-06 03:02:00,71.6,71.1,30.00,SE,127,0.0,0.0,98,0.00,,,0.04,0.0,meteohub,2013-02-06 07:02:00,
2013-02-06 03:07:00,71.6,71.2,30.00,SE,127,0.0,0.0,99,0.00,,,0.04,0.0,meteohub,2013-02-06 07:07:00,
2013-02-06 03:12:00,71.4,71.1,30.00,SE,127,0.0,0.0,99,0.00,,,0.04,0.0,meteohub,2013-02-06 07:12:00,
2013-02-06 03:17:00,71.6,71.2,30.00,SE,127,0.0,0.0,99,0.00,,,0.04,0.0,meteohub,2013-02-06 07:17:00,
2013-02-06 03:22:00,71.6,71.2,30.00,SE,127,0.0,0.0,99,0.00,,,0.04,0.0,meteohub,2013-02-06 07:22:00,
2013-02-06 03:27:00,71.4,71.1,30.00,SE,127,0.0,0.0,99,0.00,,,0.04,0.0,meteohub,2013-02-06 07:27:00,
2013-02-06 03:32:00,71.4,71.1,30.00,SE,127,0.0,0.0,99,0.00,,,0.04,0.0,meteohub,2013-02-06 07:32:00,
2013-02-06 03:37:00,71.6,71.2,30.00,SE,127,0.0,0.0,99,0.00,,,0.04,0.0,meteohub,2013-02-06 07:37:00,
2013-02-06 03:43:00,71.6,71.2,30.00,SE,127,0.0,0.0,99,0.00,,,0.04,0.0,meteohub,2013-02-06 07:43:00,
2013-02-06 03:48:00,71.6,71.2,30.00,SE,128,0.0,0.0,99,0.00,,,0.04,0.0,meteohub,2013-02-06 07:48:00,
2013-02-06 03:53:00,71.6,71.2,30.00,SE,127,0.0,0.0,99,0.00,,,0.04,0.0,meteohub,2013-02-06 07:53:00,
2013-02-06 03:58:00,71.4,71.1,30.01,SE,127,0.0,0.0,99,0.00,,,0.04,0.0,meteohub,2013-02-06 07:58:00,
2013-02-06 04:03:00,71.4,71.1,30.01,SE,127,0.0,0.0,99,0.00,,,0.04,0.0,meteohub,2013-02-06 08:03:00,
2013-02-06 04:08:00,71.6,71.2,30.01,SE,127,0.0,0.0,99,0.00,,,0.04,0.0,meteohub,2013-02-06 08:08:00,
2013-02-06 04:13:00,71.4,71.1,30.01,SE,128,0.0,0.0,99,0.00,,,0.04,0.0,meteohub,2013-02-06 08:13:00,
2013-02-06 04:18:00,71.4,71.1,30.01,SE,127,0.0,0.0,99,0.00,,,0.04,0.0,meteohub,2013-02-06 08:18:00,
2013-02-06 04:23:00,71.4,71.1,30.01,SE,127,0.0,0.0,99,0.00,,,0.04,0.0,meteohub,2013-02-06 08:23:00,
2013-02-06 04:28:00,71.2,70.9,30.00,SE,128,0.0,0.0,99,0.00,,,0.04,0.0,meteohub,2013-02-06 08:28:00,
2013-02-06 04:33:00,71.1,70.7,30.00,SE,127,0.0,0.0,99,0.00,,,0.04,0.0,meteohub,2013-02-06 08:33:00,
2013-02-06 04:38:00,71.1,70.7,30.00,SE,127,0.0,0.0,99,0.00,,,0.04,0.0,meteohub,2013-02-06 08:38:00,
2013-02-06 04:43:00,71.1,70.7,30.00,SE,127,0.0,0.0,99,0.00,,,0.04,0.0,meteohub,2013-02-06 08:43:00,
2013-02-06 04:48:00,71.2,70.9,30.00,SE,127,0.0,0.0,99,0.00,,,0.04,0.0,meteohub,2013-02-06 08:48:00,
2013-02-06 04:53:00,71.1,70.7,30.00,SE,128,0.0,0.0,99,0.00,,,0.04,0.0,meteohub,2013-02-06 08:53:00,
2013-02-06 04:58:00,71.1,70.7,30.01,SE,127,0.0,0.0,99,0.00,,,0.04,0.0,meteohub,2013-02-06 08:58:00,
2013-02-06 05:04:00,71.1,70.7,30.01,SE,126,0.0,0.0,99,0.00,,,0.04,0.0,meteohub,2013-02-06 09:04:00,
2013-02-06 05:09:00,71.1,70.7,30.01,SE,128,0.0,0.0,99,0.00,,,0.04,0.0,meteohub,2013-02-06 09:09:00,
2013-02-06 05:14:00,71.2,70.9,30.01,SE,127,0.0,0.0,99,0.00,,,0.04,0.0,meteohub,2013-02-06 09:14:00,
2013-02-06 05:19:00,71.2,70.9,30.01,SE,127,0.0,0.0,99,0.00,,,0.04,0.0,meteohub,2013-02-06 09:19:00,
2013-02-06 05:24:00,71.1,70.7,30.01,SE,127,0.0,0.0,99,0.00,,,0.04,0.0,meteohub,2013-02-06 09:24:00,
2013-02-06 05:29:00,71.1,70.7,30.01,SE,127,0.0,0.0,99,0.00,,,0.04,0.0,meteohub,2013-02-06 09:29:00,
2013-02-06 05:34:00,71.1,70.7,30.01,SE,128,0.0,0.0,99,0.00,,,0.04,0.0,meteohub,2013-02-06 09:34:00,
2013-02-06 05:40:00,71.1,70.7,30.01,SE,127,0.0,0.0,99,0.00,,,0.04,0.0,meteohub,2013-02-06 09:40:00,
2013-02-06 05:44:00,71.2,70.9,30.01,SE,127,0.0,0.0,99,0.00,,,0.04,0.0,meteohub,2013-02-06 09:44:00,
2013-02-06 05:49:00,71.4,71.1,30.01,SE,127,0.0,0.0,99,0.00,,,0.04,0.0,meteohub,2013-02-06 09:49:00,
2013-02-06 05:54:00,71.4,71.1,30.01,SE,128,0.0,0.0,99,0.00,,,0.04,0.0,meteohub,2013-02-06 09:54:00,
2013-02-06 05:59:00,71.4,71.1,30.02,SE,127,0.0,0.0,99,0.00,,,0.04,0.0,meteohub,2013-02-06 09:59:00,
2013-02-06 06:05:00,71.2,70.9,30.02,SE,127,0.0,0.0,99,0.00,,,0.04,0.0,meteohub,2013-02-06 10:05:00,
2013-02-06 06:10:00,71.2,70.9,30.02,SE,127,0.0,0.0,99,0.00,,,0.04,0.0,meteohub,2013-02-06 10:10:00,
2013-02-06 06:15:00,71.2,70.7,30.03,SE,127,0.0,0.0,98,0.00,,,0.04,0.0,meteohub,2013-02-06 10:15:00,
2013-02-06 06:20:00,71.4,70.9,30.03,SE,127,0.0,0.0,98,0.00,,,0.04,0.0,meteohub,2013-02-06 10:20:00,
2013-02-06 06:25:00,71.4,70.9,30.03,SE,127,0.0,0.0,98,0.00,,,0.04,0.0,meteohub,2013-02-06 10:25:00,
2013-02-06 06:30:00,71.6,71.1,30.04,SE,127,3.0,0.0,98,0.00,,,0.04,0.0,meteohub,2013-02-06 10:30:00,
2013-02-06 06:35:00,71.4,70.9,30.04,ENE,75,5.0,7.0,98,0.00,,,0.04,0.0,meteohub,2013-02-06 10:35:00,
2013-02-06 06:40:00,71.6,71.1,30.04,East,89,0.0,7.0,98,0.01,,,0.05,0.0,meteohub,2013-02-06 10:40:00,
2013-02-06 06:45:00,71.6,71.1,30.05,East,92,2.0,7.0,98,0.01,,,0.05,0.0,meteohub,2013-02-06 10:45:00,
2013-02-06 06:50:00,71.6,71.1,30.05,East,92,0.0,5.0,98,0.01,,,0.05,0.0,meteohub,2013-02-06 10:50:00,
2013-02-06 06:55:00,71.4,70.9,30.05,East,93,0.0,2.0,98,0.01,,,0.05,0.0,meteohub,2013-02-06 10:55:00,
2013-02-06 07:00:00,71.4,70.9,30.05,East,92,0.0,2.0,98,0.01,,,0.05,0.0,meteohub,2013-02-06 11:00:00,
2013-02-06 07:06:00,71.2,70.7,30.05,East,96,0.0,3.0,98,0.01,,,0.05,0.0,meteohub,2013-02-06 11:06:00,
2013-02-06 07:11:00,71.4,70.9,30.05,East,96,0.0,3.0,98,0.01,,,0.05,5.0,meteohub,2013-02-06 11:11:00,
2013-02-06 07:16:00,71.6,71.1,30.05,East,96,0.0,3.0,98,0.01,,,0.05,5.0,meteohub,2013-02-06 11:16:00,
2013-02-06 07:21:00,71.2,70.3,30.05,ESE,114,1.0,0.0,97,0.01,,,0.05,9.0,meteohub,2013-02-06 11:21:00,
2013-02-06 07:26:00,71.1,70.2,30.05,ESE,114,0.0,3.0,97,0.01,,,0.05,12.0,meteohub,2013-02-06 11:26:00,
2013-02-06 07:31:00,71.1,69.8,30.05,ESE,114,0.0,3.0,96,0.01,,,0.05,18.0,meteohub,2013-02-06 11:31:00,
2013-02-06 07:36:00,71.4,70.2,30.05,SSE,168,0.0,3.0,96,0.00,,,0.05,19.0,meteohub,2013-02-06 11:36:00,
2013-02-06 07:41:00,71.4,70.0,30.05,South,191,0.0,6.0,95,0.00,,,0.05,19.0,meteohub,2013-02-06 11:41:00,
2013-02-06 07:46:00,71.4,69.6,30.05,South,189,0.0,6.0,94,0.00,,,0.05,25.0,meteohub,2013-02-06 11:46:00,
2013-02-06 07:51:00,71.8,69.6,30.05,South,188,0.0,6.0,93,0.00,,,0.05,33.0,meteohub,2013-02-06 11:51:00,
2013-02-06 07:56:00,71.8,69.3,30.05,South,189,0.0,6.0,92,0.00,,,0.05,51.0,meteohub,2013-02-06 11:56:00,
2013-02-06 08:01:00,72.0,69.3,30.06,South,188,0.0,3.0,91,0.00,,,0.05,49.0,meteohub,2013-02-06 12:01:00,
2013-02-06 08:06:00,72.3,69.3,30.06,South,188,0.0,3.0,90,0.00,,,0.05,53.0,meteohub,2013-02-06 12:06:00,
2013-02-06 08:11:00,72.5,69.1,30.06,South,188,0.0,2.0,89,0.00,,,0.05,72.0,meteohub,2013-02-06 12:11:00,
2013-02-06 08:16:00,72.9,69.1,30.06,South,188,0.0,0.0,88,0.00,,,0.05,86.0,meteohub,2013-02-06 12:16:00,
2013-02-06 08:21:00,73.2,69.1,30.06,South,188,0.0,0.0,87,0.00,,,0.05,99.0,meteohub,2013-02-06 12:21:00,
2013-02-06 08:26:00,73.9,69.8,30.06,South,188,0.0,0.0,87,0.00,,,0.05,109.0,meteohub,2013-02-06 12:26:00,
2013-02-06 08:31:00,73.9,69.4,30.07,South,189,0.0,0.0,86,0.00,,,0.05,120.0,meteohub,2013-02-06 12:31:00,
2013-02-06 08:36:00,73.9,69.4,30.07,South,189,0.0,0.0,86,0.00,,,0.05,134.0,meteohub,2013-02-06 12:36:00,
2013-02-06 08:41:00,74.1,70.0,30.07,South,188,0.0,0.0,87,0.00,,,0.05,148.0,meteohub,2013-02-06 12:41:00,
2013-02-06 08:46:00,74.7,70.2,30.07,South,188,0.0,0.0,86,0.00,,,0.05,169.0,meteohub,2013-02-06 12:46:00,
2013-02-06 08:51:00,74.8,70.3,30.07,South,188,0.0,0.0,86,0.00,,,0.05,187.0,meteohub,2013-02-06 12:51:00,
2013-02-06 08:56:00,75.4,70.5,30.07,South,188,0.0,0.0,85,0.00,,,0.05,204.0,meteohub,2013-02-06 12:56:00,
2013-02-06 09:01:00,75.7,70.5,30.07,SSE,158,0.0,0.0,84,0.00,,,0.05,227.0,meteohub,2013-02-06 13:01:00,
2013-02-06 09:06:00,75.9,70.0,30.07,SSE,157,0.0,1.0,82,0.00,,,0.05,204.0,meteohub,2013-02-06 13:06:00,
2013-02-06 09:12:00,76.3,70.3,30.07,SSE,157,0.0,1.0,82,0.00,,,0.05,223.0,meteohub,2013-02-06 13:12:00,
2013-02-06 09:17:00,76.6,70.3,30.07,SSE,158,0.0,1.0,81,0.00,,,0.05,225.0,meteohub,2013-02-06 13:17:00,
2013-02-06 09:22:00,76.8,70.2,30.07,SSE,157,0.0,0.0,80,0.00,,,0.05,236.0,meteohub,2013-02-06 13:22:00,
2013-02-06 09:27:00,77.2,70.5,30.07,SSE,157,0.0,0.0,80,0.00,,,0.05,264.0,meteohub,2013-02-06 13:27:00,
2013-02-06 09:32:00,77.4,70.7,30.08,SE,127,4.0,5.0,80,0.00,,,0.05,271.0,meteohub,2013-02-06 13:32:00,
2013-02-06 09:37:00,77.5,70.9,30.08,SE,131,0.0,7.0,80,0.00,,,0.05,290.0,meteohub,2013-02-06 13:37:00,
2013-02-06 09:42:00,77.4,70.7,30.08,SSE,147,0.0,7.0,80,0.00,,,0.05,306.0,meteohub,2013-02-06 13:42:00,
2013-02-06 09:47:00,77.7,71.1,30.08,SSE,147,0.0,7.0,80,0.00,,,0.05,310.0,meteohub,2013-02-06 13:47:00,
2013-02-06 09:52:00,77.9,70.9,30.08,SE,143,0.0,6.0,79,0.00,,,0.05,341.0,meteohub,2013-02-06 13:52:00,
2013-02-06 09:57:00,78.3,71.2,30.08,East,95,3.0,6.0,79,0.00,,,0.05,384.0,meteohub,2013-02-06 13:57:00,
2013-02-06 10:02:00,78.6,71.2,30.08,ESE,116,0.0,6.0,78,0.00,,,0.05,398.0,meteohub,2013-02-06 14:02:00,
2013-02-06 10:07:00,79.0,71.6,30.08,ESE,117,0.0,8.0,78,0.00,,,0.05,436.0,meteohub,2013-02-06 14:07:00,
2013-02-06 10:12:00,79.3,72.0,30.08,ESE,109,6.0,8.0,78,0.00,,,0.05,445.0,meteohub,2013-02-06 14:12:00,
2013-02-06 10:17:00,79.5,71.6,30.08,East,93,2.0,8.0,77,0.00,,,0.05,408.0,meteohub,2013-02-06 14:17:00,
2013-02-06 10:22:00,79.5,71.6,30.08,East,93,0.0,7.0,77,0.00,,,0.05,429.0,meteohub,2013-02-06 14:22:00,
2013-02-06 10:27:00,79.9,72.0,30.08,East,95,0.0,7.0,77,0.00,,,0.05,354.0,meteohub,2013-02-06 14:27:00,
2013-02-06 10:32:00,79.9,71.2,30.07,SE,131,8.0,8.0,75,0.00,,,0.05,628.0,meteohub,2013-02-06 14:32:00,
2013-02-06 10:38:00,79.9,70.5,30.07,SSE,154,2.0,7.0,73,0.00,,,0.05,802.0,meteohub,2013-02-06 14:38:00,
2013-02-06 10:43:00,80.4,70.9,30.07,SE,136,7.0,14.0,73,0.00,,,0.05,771.0,meteohub,2013-02-06 14:43:00,
2013-02-06 10:48:00,81.1,70.0,30.07,SE,136,5.0,14.0,69,0.00,,,0.05,769.0,meteohub,2013-02-06 14:48:00,
2013-02-06 10:53:00,82.0,70.3,30.07,ESE,103,10.0,14.0,68,0.00,,,0.05,728.0,meteohub,2013-02-06 14:53:00,
2013-02-06 10:58:00,82.2,69.8,30.07,East,85,10.0,14.0,66,0.00,,,0.05,69.0,meteohub,2013-02-06 14:58:00,
2013-02-06 11:03:00,82.4,69.1,30.07,ENE,76,0.0,14.0,64,0.00,,,0.05,338.0,meteohub,2013-02-06 15:03:00,
2013-02-06 11:08:00,82.6,69.1,30.07,SE,136,7.0,14.0,64,0.00,,,0.05,461.0,meteohub,2013-02-06 15:08:00,
2013-02-06 11:13:00,83.1,69.6,30.06,ESE,104,2.0,12.0,64,0.00,,,0.05,461.0,meteohub,2013-02-06 15:13:00,
2013-02-06 11:18:00,83.5,70.5,30.06,East,85,5.0,13.0,65,0.00,,,0.05,871.0,meteohub,2013-02-06 15:18:00,
2013-02-06 11:23:00,82.4,68.0,30.06,East,82,9.0,14.0,62,0.00,,,0.05,222.0,meteohub,2013-02-06 15:23:00,
2013-02-06 11:28:00,82.2,69.3,30.06,ESE,106,6.0,18.0,65,0.00,,,0.05,825.0,meteohub,2013-02-06 15:28:00,
2013-02-06 11:33:00,82.8,69.8,30.06,ENE,61,10.0,18.0,65,0.00,,,0.05,940.0,meteohub,2013-02-06 15:33:00,
2013-02-06 11:38:00,82.4,70.3,30.06,ESE,109,10.0,18.0,67,0.00,,,0.05,155.0,meteohub,2013-02-06 15:38:00,
2013-02-06 11:43:00,82.6,70.0,30.05,East,85,5.0,14.0,66,0.00,,,0.05,962.0,meteohub,2013-02-06 15:43:00,
2013-02-06 11:48:00,83.1,71.1,30.05,ESE,109,6.0,14.0,67,0.00,,,0.05,962.0,meteohub,2013-02-06 15:48:00,
2013-02-06 11:53:00,82.8,71.1,30.05,East,93,8.0,13.0,68,0.00,,,0.05,375.0,meteohub,2013-02-06 15:53:00,
2013-02-06 11:58:00,82.2,70.5,30.05,SE,141,11.0,12.0,68,0.00,,,0.05,413.0,meteohub,2013-02-06 15:58:00,
2013-02-06 12:03:00,81.9,70.3,30.05,ENE,59,4.0,16.0,68,0.00,,,0.05,428.0,meteohub,2013-02-06 16:03:00,
2013-02-06 12:08:00,82.0,70.3,30.05,East,95,0.0,16.0,68,0.00,,,0.05,484.0,meteohub,2013-02-06 16:08:00,
2013-02-06 12:13:00,81.9,68.9,30.05,ESE,113,5.0,16.0,65,0.00,,,0.05,380.0,meteohub,2013-02-06 16:13:00,
2013-02-06 12:18:00,81.7,70.2,30.05,ESE,116,3.0,17.0,68,0.00,,,0.05,419.0,meteohub,2013-02-06 16:18:00,
2013-02-06 12:23:00,81.9,70.7,30.05,East,88,8.0,17.0,69,0.00,,,0.05,391.0,meteohub,2013-02-06 16:23:00,
2013-02-06 12:28:00,81.3,70.2,30.04,East,79,6.0,16.0,69,0.00,,,0.05,377.0,meteohub,2013-02-06 16:28:00,
2013-02-06 12:34:00,81.3,70.2,30.04,East,85,0.0,17.0,69,0.00,,,0.05,491.0,meteohub,2013-02-06 16:34:00,
2013-02-06 12:39:00,81.9,69.8,30.04,ESE,102,6.0,17.0,67,0.00,,,0.05,561.0,meteohub,2013-02-06 16:39:00,
2013-02-06 12:44:00,82.4,70.3,30.03,NE,47,8.0,17.0,67,0.00,,,0.05,535.0,meteohub,2013-02-06 16:44:00,
2013-02-06 12:49:00,82.6,69.6,30.03,ESE,117,7.0,12.0,65,0.00,,,0.05,554.0,meteohub,2013-02-06 16:49:00,
2013-02-06 12:54:00,82.6,69.1,30.03,ENE,73,6.0,13.0,64,0.00,,,0.05,531.0,meteohub,2013-02-06 16:54:00,
2013-02-06 12:59:00,82.8,69.8,30.02,East,80,8.0,18.0,65,0.00,,,0.05,500.0,meteohub,2013-02-06 16:59:00,
2013-02-06 13:04:00,82.6,69.6,30.02,SE,131,10.0,18.0,65,0.00,,,0.05,352.0,meteohub,2013-02-06 17:04:00,
2013-02-06 13:09:00,82.2,69.3,30.02,East,90,5.0,16.0,65,0.00,,,0.05,280.0,meteohub,2013-02-06 17:09:00,
2013-02-06 13:14:00,81.7,68.7,30.02,ENE,73,7.0,16.0,65,0.00,,,0.05,297.0,meteohub,2013-02-06 17:14:00,
2013-02-06 13:19:00,81.7,68.4,30.02,East,100,0.0,14.0,64,0.00,,,0.05,355.0,meteohub,2013-02-06 17:19:00,
2013-02-06 13:24:00,82.4,69.1,30.02,East,86,7.0,13.0,64,0.00,,,0.05,512.0,meteohub,2013-02-06 17:24:00,
2013-02-06 13:29:00,82.4,69.1,30.01,East,97,8.0,13.0,64,0.00,,,0.05,489.0,meteohub,2013-02-06 17:29:00,
2013-02-06 13:34:00,82.6,69.1,30.01,East,95,0.0,14.0,64,0.00,,,0.05,640.0,meteohub,2013-02-06 17:34:00,
2013-02-06 13:39:00,83.7,68.7,30.01,East,82,5.0,14.0,61,0.00,,,0.05,556.0,meteohub,2013-02-06 17:39:00,
2013-02-06 13:44:00,83.5,67.6,30.01,East,85,10.0,14.0,59,0.00,,,0.05,618.0,meteohub,2013-02-06 17:44:00,
2013-02-06 13:49:00,83.5,68.2,30.01,East,86,5.0,13.0,60,0.00,,,0.05,628.0,meteohub,2013-02-06 17:49:00,
2013-02-06 13:54:00,84.0,69.1,30.01,ENE,69,7.0,13.0,61,0.00,,,0.05,725.0,meteohub,2013-02-06 17:54:00,
2013-02-06 13:59:00,83.5,69.1,30.00,ENE,76,8.0,13.0,62,0.00,,,0.05,528.0,meteohub,2013-02-06 17:59:00,
2013-02-06 14:04:00,83.5,69.1,30.00,ENE,71,7.0,15.0,62,0.00,,,0.05,588.0,meteohub,2013-02-06 18:04:00,
2013-02-06 14:09:00,83.7,69.8,30.00,East,82,7.0,15.0,63,0.00,,,0.05,596.0,meteohub,2013-02-06 18:09:00,
2013-02-06 14:14:00,83.8,70.0,29.99,SE,131,2.0,16.0,63,0.00,,,0.05,477.0,meteohub,2013-02-06 18:14:00,
2013-02-06 14:19:00,83.7,69.8,29.99,East,88,5.0,16.0,63,0.00,,,0.05,461.0,meteohub,2013-02-06 18:19:00,
2013-02-06 14:24:00,83.7,68.4,29.99,East,92,6.0,13.0,60,0.00,,,0.05,461.0,meteohub,2013-02-06 18:24:00,
2013-02-06 14:29:00,83.7,67.3,29.99,ESE,104,0.0,12.0,58,0.00,,,0.05,660.0,meteohub,2013-02-06 18:29:00,
2013-02-06 14:34:00,83.8,67.5,29.99,SSE,147,0.0,13.0,58,0.00,,,0.05,457.0,meteohub,2013-02-06 18:34:00,
2013-02-06 14:39:00,84.0,67.6,29.99,ESE,120,0.0,13.0,58,0.00,,,0.05,695.0,meteohub,2013-02-06 18:39:00,
2013-02-06 14:44:00,84.4,68.0,29.99,ESE,117,0.0,13.0,58,0.00,,,0.05,625.0,meteohub,2013-02-06 18:44:00,
2013-02-06 14:49:00,84.7,68.4,29.99,ENE,69,0.0,11.0,58,0.00,,,0.05,496.0,meteohub,2013-02-06 18:49:00,
2013-02-06 14:54:00,84.7,67.8,29.99,SE,140,3.0,11.0,57,0.00,,,0.05,398.0,meteohub,2013-02-06 18:54:00,
2013-02-06 14:59:00,84.4,67.5,29.99,East,82,1.0,12.0,57,0.00,,,0.05,368.0,meteohub,2013-02-06 18:59:00,
2013-02-06 15:05:00,84.0,67.6,29.99,SE,130,0.0,12.0,58,0.00,,,0.05,362.0,meteohub,2013-02-06 19:05:00,
2013-02-06 15:10:00,84.0,67.6,29.99,ESE,104,0.0,12.0,58,0.00,,,0.05,348.0,meteohub,2013-02-06 19:10:00,
2013-02-06 15:15:00,84.0,66.6,29.98,SE,144,8.0,9.0,56,0.00,,,0.05,354.0,meteohub,2013-02-06 19:15:00,
2013-02-06 15:20:00,84.0,67.1,29.98,East,95,0.0,12.0,57,0.00,,,0.05,311.0,meteohub,2013-02-06 19:20:00,
2013-02-06 15:25:00,83.8,68.0,29.98,ENE,69,0.0,12.0,59,0.00,,,0.05,313.0,meteohub,2013-02-06 19:25:00,
2013-02-06 15:30:00,83.8,68.0,29.98,NE,52,0.0,10.0,59,0.00,,,0.05,324.0,meteohub,2013-02-06 19:30:00,
2013-02-06 15:35:00,83.8,68.5,29.98,ESE,109,3.0,7.0,60,0.00,,,0.05,324.0,meteohub,2013-02-06 19:35:00,
2013-02-06 15:40:00,83.7,69.3,29.98,ENE,76,2.0,7.0,62,0.00,,,0.05,341.0,meteohub,2013-02-06 19:40:00,
2013-02-06 15:45:00,83.7,69.8,29.98,East,93,1.0,7.0,63,0.00,,,0.05,399.0,meteohub,2013-02-06 19:45:00,
2013-02-06 15:50:00,84.0,68.7,29.98,ESE,106,0.0,7.0,60,0.00,,,0.05,385.0,meteohub,2013-02-06 19:50:00,
2013-02-06 15:55:00,84.4,68.0,29.98,East,96,5.0,8.0,58,0.00,,,0.05,387.0,meteohub,2013-02-06 19:55:00,
2013-02-06 16:00:00,84.4,68.5,29.98,SSE,157,0.0,8.0,59,0.00,,,0.05,355.0,meteohub,2013-02-06 20:00:00,
2013-02-06 16:05:00,84.4,68.0,29.98,SSE,158,0.0,8.0,58,0.00,,,0.05,294.0,meteohub,2013-02-06 20:05:00,
2013-02-06 16:10:00,84.6,67.6,29.98,ESE,112,0.0,8.0,57,0.00,,,0.05,230.0,meteohub,2013-02-06 20:10:00,
2013-02-06 16:15:00,84.0,67.1,29.98,SSE,147,0.0,7.0,57,0.00,,,0.05,255.0,meteohub,2013-02-06 20:15:00,
2013-02-06 16:21:00,83.8,68.9,29.98,NE,47,0.0,8.0,61,0.00,,,0.05,216.0,meteohub,2013-02-06 20:21:00,
2013-02-06 16:26:00,83.5,69.6,29.98,East,90,4.0,8.0,63,0.00,,,0.05,348.0,meteohub,2013-02-06 20:26:00,
2013-02-06 16:31:00,83.1,69.6,29.98,ENE,75,4.0,11.0,64,0.00,,,0.05,421.0,meteohub,2013-02-06 20:31:00,
2013-02-06 16:36:00,82.9,69.4,29.98,East,86,6.0,14.0,64,0.00,,,0.05,318.0,meteohub,2013-02-06 20:36:00,
2013-02-06 16:41:00,82.8,69.8,29.98,ESE,109,6.0,14.0,65,0.00,,,0.05,357.0,meteohub,2013-02-06 20:41:00,
2013-02-06 16:46:00,82.4,70.0,29.98,East,96,8.0,14.0,66,0.00,,,0.05,285.0,meteohub,2013-02-06 20:46:00,
2013-02-06 16:51:00,82.0,70.3,29.98,ENE,73,8.0,14.0,68,0.00,,,0.05,176.0,meteohub,2013-02-06 20:51:00,
2013-02-06 16:56:00,81.3,70.5,29.98,East,85,3.0,12.0,70,0.00,,,0.05,65.0,meteohub,2013-02-06 20:56:00,
2013-02-06 17:01:00,81.1,71.2,29.98,East,90,0.0,12.0,72,0.00,,,0.05,46.0,meteohub,2013-02-06 21:01:00,
2013-02-06 17:06:00,81.0,70.7,29.98,ENE,68,4.0,12.0,71,0.00,,,0.05,39.0,meteohub,2013-02-06 21:06:00,
2013-02-06 17:11:00,80.8,71.2,29.98,NE,56,7.0,14.0,73,0.00,,,0.05,39.0,meteohub,2013-02-06 21:11:00,
2013-02-06 17:16:00,80.4,70.9,29.98,ESE,103,6.0,14.0,73,0.00,,,0.05,39.0,meteohub,2013-02-06 21:16:00,
2013-02-06 17:21:00,80.4,70.9,29.98,ENE,69,10.0,14.0,73,0.00,,,0.05,35.0,meteohub,2013-02-06 21:21:00,
2013-02-06 17:26:00,80.2,70.9,29.98,NE,56,4.0,11.0,73,0.00,,,0.05,35.0,meteohub,2013-02-06 21:26:00,
2013-02-06 17:31:00,80.2,70.9,29.99,East,92,4.0,12.0,73,0.00,,,0.05,30.0,meteohub,2013-02-06 21:31:00,
2013-02-06 17:37:00,79.9,70.9,29.99,ENE,75,10.0,12.0,74,0.00,,,0.05,28.0,meteohub,2013-02-06 21:37:00,
2013-02-06 17:42:00,79.9,71.2,29.99,ENE,73,5.0,10.0,75,0.00,,,0.05,25.0,meteohub,2013-02-06 21:42:00,
2013-02-06 17:47:00,79.5,70.9,29.99,East,92,0.0,13.0,75,0.00,,,0.05,23.0,meteohub,2013-02-06 21:47:00,
2013-02-06 17:52:00,79.3,71.1,29.99,ENE,78,9.0,13.0,76,0.00,,,0.05,19.0,meteohub,2013-02-06 21:52:00,
2013-02-06 17:57:00,79.0,71.1,29.99,NE,45,0.0,12.0,77,0.00,,,0.05,18.0,meteohub,2013-02-06 21:57:00,
2013-02-06 18:02:00,79.0,71.1,29.99,East,97,2.0,12.0,77,0.00,,,0.05,14.0,meteohub,2013-02-06 22:02:00,
2013-02-06 18:07:00,79.0,71.1,29.99,ESE,103,0.0,10.0,77,0.00,,,0.05,12.0,meteohub,2013-02-06 22:07:00,
2013-02-06 18:12:00,78.8,71.4,29.99,ESE,120,2.0,10.0,78,0.00,,,0.05,9.0,meteohub,2013-02-06 22:12:00,
2013-02-06 18:17:00,78.6,71.6,29.99,SE,131,6.0,10.0,79,0.00,,,0.05,7.0,meteohub,2013-02-06 22:17:00,
2013-02-06 18:22:00,78.4,71.4,29.99,NE,54,0.0,12.0,79,0.00,,,0.05,0.0,meteohub,2013-02-06 22:22:00,
2013-02-06 18:27:00,78.3,71.6,29.99,East,90,0.0,12.0,80,0.00,,,0.05,0.0,meteohub,2013-02-06 22:27:00,
2013-02-06 18:32:00,78.3,71.6,29.99,East,89,0.0,12.0,80,0.00,,,0.05,0.0,meteohub,2013-02-06 22:32:00,
2013-02-06 18:37:00,78.1,71.8,29.99,East,89,0.0,10.0,81,0.00,,,0.05,0.0,meteohub,2013-02-06 22:37:00,
2013-02-06 18:42:00,77.9,71.6,29.99,ESE,107,0.0,10.0,81,0.00,,,0.05,0.0,meteohub,2013-02-06 22:42:00,
2013-02-06 18:47:00,77.9,71.6,29.99,ESE,106,0.0,11.0,81,0.00,,,0.05,0.0,meteohub,2013-02-06 22:47:00,
2013-02-06 18:52:00,77.9,71.6,29.99,ESE,107,0.0,11.0,81,0.00,,,0.05,0.0,meteohub,2013-02-06 22:52:00,
2013-02-06 18:57:00,77.9,72.0,29.99,ENE,59,1.0,11.0,82,0.00,,,0.05,0.0,meteohub,2013-02-06 22:57:00,
2013-02-06 19:02:00,77.9,72.0,29.99,East,100,0.0,7.0,82,0.00,,,0.05,0.0,meteohub,2013-02-06 23:02:00,
2013-02-06 19:07:00,77.7,71.8,29.99,SE,131,0.0,7.0,82,0.00,,,0.05,0.0,meteohub,2013-02-06 23:07:00,
2013-02-06 19:12:00,77.5,71.6,29.99,East,85,0.0,7.0,82,0.00,,,0.05,0.0,meteohub,2013-02-06 23:12:00,
2013-02-06 19:17:00,77.5,72.0,30.00,ESE,113,0.0,6.0,83,0.00,,,0.05,0.0,meteohub,2013-02-06 23:17:00,
2013-02-06 19:22:00,77.4,71.8,30.00,ESE,113,0.0,6.0,83,0.00,,,0.05,0.0,meteohub,2013-02-06 23:22:00,
2013-02-06 19:27:00,77.4,72.1,30.00,ESE,113,0.0,6.0,84,0.00,,,0.05,0.0,meteohub,2013-02-06 23:27:00,
2013-02-06 19:32:00,77.2,72.0,30.01,ESE,113,0.0,6.0,84,0.00,,,0.05,0.0,meteohub,2013-02-06 23:32:00,
2013-02-06 19:37:00,77.2,72.0,30.01,ESE,112,0.0,0.0,84,0.00,,,0.05,0.0,meteohub,2013-02-06 23:37:00,
2013-02-06 19:43:00,77.0,72.1,30.01,ESE,113,0.0,6.0,85,0.00,,,0.05,0.0,meteohub,2013-02-06 23:43:00,
2013-02-06 19:47:00,77.0,72.1,30.01,ESE,113,0.0,6.0,85,0.00,,,0.05,0.0,meteohub,2013-02-06 23:47:00,
2013-02-06 19:52:00,76.8,72.0,30.01,ESE,113,0.0,6.0,85,0.00,,,0.05,0.0,meteohub,2013-02-06 23:52:00,
2013-02-06 19:57:00,76.6,72.1,30.01,ESE,112,0.0,0.0,86,0.00,,,0.05,0.0,meteohub,2013-02-06 23:57:00,
2013-02-06 20:03:00,76.6,72.1,30.01,SE,131,0.0,4.0,86,0.00,,,0.05,0.0,meteohub,2013-02-07 00:03:00,
2013-02-06 20:08:00,76.5,72.3,30.01,SE,134,0.0,6.0,87,0.00,,,0.05,0.0,meteohub,2013-02-07 00:08:00,
2013-02-06 20:13:00,76.3,72.1,30.02,SE,131,0.0,6.0,87,0.00,,,0.05,0.0,meteohub,2013-02-07 00:13:00,
2013-02-06 20:18:00,76.3,72.1,30.02,SE,131,0.0,1.0,87,0.00,,,0.05,0.0,meteohub,2013-02-07 00:18:00,
2013-02-06 20:23:00,76.1,72.0,30.02,SE,133,0.0,1.0,87,0.00,,,0.05,0.0,meteohub,2013-02-07 00:23:00,
2013-02-06 20:28:00,76.1,72.3,30.02,SE,133,0.0,1.0,88,0.00,,,0.05,0.0,meteohub,2013-02-07 00:28:00,
2013-02-06 20:33:00,76.1,72.3,30.02,SE,133,0.0,2.0,88,0.00,,,0.05,0.0,meteohub,2013-02-07 00:33:00,
2013-02-06 20:38:00,76.1,72.3,30.02,SE,133,0.0,2.0,88,0.00,,,0.05,0.0,meteohub,2013-02-07 00:38:00,
2013-02-06 20:43:00,75.9,72.1,30.03,SE,131,0.0,2.0,88,0.00,,,0.05,0.0,meteohub,2013-02-07 00:43:00,
2013-02-06 20:48:00,76.1,72.3,30.03,SE,133,0.0,0.0,88,0.00,,,0.05,0.0,meteohub,2013-02-07 00:48:00,
2013-02-06 20:53:00,75.9,72.1,30.03,SE,133,0.0,0.0,88,0.00,,,0.05,0.0,meteohub,2013-02-07 00:53:00,
2013-02-06 20:58:00,75.9,72.1,30.03,SE,133,0.0,0.0,88,0.00,,,0.05,0.0,meteohub,2013-02-07 00:58:00,
2013-02-06 21:03:00,75.9,72.1,30.03,SE,134,0.0,0.0,88,0.00,,,0.05,0.0,meteohub,2013-02-07 01:03:00,
2013-02-06 21:08:00,75.7,72.0,30.03,SE,131,0.0,0.0,88,0.00,,,0.05,0.0,meteohub,2013-02-07 01:08:00,
2013-02-06 21:13:00,75.7,72.3,30.03,SE,133,0.0,0.0,89,0.00,,,0.05,0.0,meteohub,2013-02-07 01:13:00,
2013-02-06 21:18:00,75.7,72.3,30.03,SE,131,0.0,0.0,89,0.00,,,0.05,0.0,meteohub,2013-02-07 01:18:00,
2013-02-06 21:23:00,75.7,72.3,30.03,SE,134,0.0,0.0,89,0.00,,,0.05,0.0,meteohub,2013-02-07 01:23:00,
2013-02-06 21:28:00,75.6,72.1,30.04,SE,134,0.0,0.0,89,0.00,,,0.05,0.0,meteohub,2013-02-07 01:28:00,
2013-02-06 21:33:00,75.6,72.1,30.04,SE,134,0.0,0.0,89,0.00,,,0.05,0.0,meteohub,2013-02-07 01:33:00,
2013-02-06 21:38:00,75.6,72.1,30.04,SE,131,0.0,0.0,89,0.00,,,0.05,0.0,meteohub,2013-02-07 01:38:00,
2013-02-06 21:43:00,75.4,72.0,30.04,SE,133,0.0,0.0,89,0.00,,,0.05,0.0,meteohub,2013-02-07 01:43:00,
2013-02-06 21:48:00,75.4,72.0,30.04,SE,131,0.0,0.0,89,0.00,,,0.05,0.0,meteohub,2013-02-07 01:48:00,
2013-02-06 21:53:00,75.4,72.0,30.04,SE,131,0.0,0.0,89,0.00,,,0.05,0.0,meteohub,2013-02-07 01:53:00,
2013-02-06 21:58:00,75.4,72.3,30.04,SE,133,0.0,0.0,90,0.00,,,0.05,0.0,meteohub,2013-02-07 01:58:00,
2013-02-06 22:03:00,75.0,72.0,30.04,SE,133,0.0,0.0,90,0.00,,,0.05,0.0,meteohub,2013-02-07 02:03:00,
2013-02-06 22:08:00,75.0,72.0,30.04,SE,133,0.0,0.0,90,0.00,,,0.05,0.0,meteohub,2013-02-07 02:08:00,
2013-02-06 22:13:00,75.4,72.3,30.04,SE,133,0.0,0.0,90,0.00,,,0.05,0.0,meteohub,2013-02-07 02:13:00,
2013-02-06 22:18:00,75.4,72.3,30.04,SE,133,0.0,0.0,90,0.00,,,0.05,0.0,meteohub,2013-02-07 02:18:00,
2013-02-06 22:23:00,75.4,72.3,30.04,SE,133,0.0,0.0,90,0.00,,,0.05,0.0,meteohub,2013-02-07 02:23:00,
2013-02-06 22:29:00,75.4,72.3,30.04,SE,133,0.0,0.0,90,0.00,,,0.05,0.0,meteohub,2013-02-07 02:29:00,
2013-02-06 22:34:00,75.4,72.3,30.04,SE,133,0.0,0.0,90,0.00,,,0.05,0.0,meteohub,2013-02-07 02:34:00,
2013-02-06 22:39:00,75.4,72.3,30.04,SE,133,0.0,0.0,90,0.00,,,0.05,0.0,meteohub,2013-02-07 02:39:00,
2013-02-06 22:44:00,75.4,72.3,30.05,SE,133,0.0,0.0,90,0.00,,,0.05,0.0,meteohub,2013-02-07 02:44:00,
2013-02-06 22:49:00,75.4,72.3,30.05,SE,134,0.0,0.0,90,0.00,,,0.05,0.0,meteohub,2013-02-07 02:49:00,
2013-02-06 22:54:00,75.4,72.3,30.05,SE,131,0.0,0.0,90,0.00,,,0.05,0.0,meteohub,2013-02-07 02:54:00,
2013-02-06 22:59:00,75.4,72.3,30.05,SE,133,0.0,0.0,90,0.00,,,0.05,0.0,meteohub,2013-02-07 02:59:00,
2013-02-06 23:04:00,75.0,72.1,30.05,SE,133,0.0,0.0,91,0.00,,,0.05,0.0,meteohub,2013-02-07 03:04:00,
2013-02-06 23:09:00,74.8,72.0,30.05,SE,133,0.0,0.0,91,0.00,,,0.05,0.0,meteohub,2013-02-07 03:09:00,
2013-02-06 23:14:00,74.7,71.8,30.05,SE,133,0.0,0.0,91,0.00,,,0.05,0.0,meteohub,2013-02-07 03:14:00,
2013-02-06 23:19:00,74.7,71.8,30.05,SE,131,0.0,0.0,91,0.00,,,0.05,0.0,meteohub,2013-02-07 03:19:00,
2013-02-06 23:24:00,74.7,72.1,30.05,SE,134,0.0,0.0,92,0.00,,,0.05,0.0,meteohub,2013-02-07 03:24:00,
2013-02-06 23:29:00,74.5,72.0,30.04,SE,133,0.0,0.0,92,0.00,,,0.05,0.0,meteohub,2013-02-07 03:29:00,
2013-02-06 23:34:00,74.5,72.0,30.04,SE,133,0.0,0.0,92,0.00,,,0.05,0.0,meteohub,2013-02-07 03:34:00,
2013-02-06 23:39:00,74.5,72.0,30.04,SE,134,0.0,0.0,92,0.00,,,0.05,0.0,meteohub,2013-02-07 03:39:00,
2013-02-06 23:44:00,74.1,71.6,30.04,SE,133,0.0,0.0,92,0.00,,,0.05,0.0,meteohub,2013-02-07 03:44:00,
2013-02-06 23:49:00,74.1,71.6,30.04,SE,134,0.0,0.0,92,0.00,,,0.05,0.0,meteohub,2013-02-07 03:49:00,
2013-02-06 23:54:00,74.1,71.6,30.04,SE,134,0.0,0.0,92,0.00,,,0.05,0.0,meteohub,2013-02-07 03:54:00,
2013-02-06 23:59:00,74.1,71.6,30.04,SE,127,0.0,0.0,92,0.00,,,0.05,0.0,meteohub,2013-02-07 03:59:00,